Hopewell, New York
Current Conditions -  °F | °C
As of 5:53 PM on Saturday 25 Oct 2014 (Local Time) from KPOU Reporting Station
Few Clouds Few Clouds  
Wind Chill: 64°   Ceiling: Unl
Heat Index: 64°   Visibility: 10mi
Dew Point: 42°   Wind: 3mph
Humidity: 45%   Direction: 230°SW
Pressure: 29.61"   Gusts: NA
Location:  41.562°N, 73.7865°W
Report Text: KPOU 252153Z AUTO 23003KT 10SM FEW085 18/06 A2961 RMK AO2 SLP025 T01780056 TSNO
Loading
Personal Weather Stations






























Interactive Weather Map
Tropical Storm Tracking
New forecast layout! Learn more

10-Day Weather Forecast

Advertisements
Track Severe Weather on mobile